HALF-HOURLY OBSERVATIONS INDEX

062

Central Tablelands - north

MUDGEE AIRPORT AWS

Site: 062101
Alt: 471.0m
4km NE of MUDGEE


  Time     Wind        Temp  DP   Baro     Rain since   Rain past  Vis(m), Cloud(base in m), Weather
  local        km/h                         9am  last   hr   10m    
Mon 11:00  NNW 11/ 15  27.4 17.8  1016.9    0.0   0.0   0.0   0.0   10000 
Mon 11:30    N 11/ 17  28.5 16.1  1016.6    0.0   0.0   0.0   0.0   10000 
Mon 12:00    N  6/  9  29.8 14.4  1016.4    0.0   0.0   0.0   0.0   10000 
Mon 12:30  WNW 11/ 19  30.0 12.4  1016.1    0.0   0.0   0.0   0.0   10000 
Mon 13:00  WNW 17/ 24  30.8 13.1  1015.9    0.0   0.0   0.0   0.0   10000 
Mon 13:30    N 13/ 22  31.4 14.1  1015.5    0.0   0.0   0.0   0.0   10000 
Mon 14:00    N  9/ 22  31.3 11.1  1015.3    0.0   0.0   0.0   0.0   10000|SC2460 
Mon 14:30    N 11/ 19  31.9 12.7  1014.9    0.0   0.0   0.0   0.0   10000 
Mon 15:00  WNW  9/ 19  32.1 10.8  1014.4    0.0   0.0   0.0   0.0   10000 
Mon 15:30    E  9/ 17  31.9  9.4  1014.0    0.0   0.0   0.0   0.0   10000 
Mon 16:00  WNW  9/ 15  32.2  9.7  1013.8    0.0   0.0   0.0   0.0   10000 
Mon 16:30  WNW 19/ 24  32.3 10.9  1013.4    0.0   0.0   0.0   0.0   10000 

NULLO MOUNTAIN AWS

Site: 062100
Alt: 1130.0m
62km ESE of MUDGEE


  Time     Wind        Temp  DP   Baro     Rain since   Rain past  Vis(m), Cloud(base in m), Weather
  local        km/h                         9am  last   hr   10m    
Mon 11:00   SW 11/ 17  22.9 10.3  ------    0.0   0.0   0.0   0.0   ----- 
Mon 11:30   SW 11/ 20  22.9  9.3  ------    0.0   0.0   0.0   0.0   ----- 
Mon 12:00   SW  9/ 15  23.6  8.8  ------    0.0   0.0   0.0   0.0   ----- 
Mon 12:30    W  7/ 13  24.6  9.7  ------    0.0   0.0   0.0   0.0   ----- 
Mon 13:00    E  6/ 11  24.3  9.8  ------    0.0   0.0   0.0   0.0   ----- 
Mon 13:30   SW 11/ 15  24.6  7.7  ------    0.0   0.0   0.0   0.0   ----- 
Mon 14:00    E  7/ 11  24.8  7.0  ------    0.0   0.0   0.0   0.0   ----- 
Mon 14:30  SSW  9/ 15  25.6  9.0  ------    0.0   0.0   0.0   0.0   ----- 
Mon 15:00  SSE  9/ 20  25.0  8.1  ------    0.0   0.0   0.0   0.0   ----- 
Mon 15:30  SSE  7/ 13  26.0 11.7  ------    0.0   0.0   0.0   0.0   ----- 
Mon 16:00  SSE  9/ 24  25.2  9.5  ------    0.0   0.0   0.0   0.0   ----- 
Mon 16:30  SSE  7/ 15  25.5  9.3  ------    0.0   0.0   0.0   0.0   -----